KQBF

Ouagadougou

Ouagadougou, Burkina Faso
METAR KQBF 261256Z AUTO 00000KT 9999 CLR 29/15 A2983 RMK AO2 SLPNO WND DATA ESTMD T02900151
Observed Flight Rules
May-26 @ 12:56 UTC (37 minutes ago) Visual Flight Rules
Visibility Clouds
10,000+ meters
  • Clear skies
Temperatures Readings
Current 29°C / 84°F
Dewpoint 15°C / 59°F
Humidity 43%
Altimeter 29.83" Hg
Pressure 1010 hPa
METAR KQBF 261256Z AUTO 00000KT 9999 CLR 29/15 A2983 RMK AO2 SLPNO WND DATA ESTMD T02900151
Observed Flight Rules
May-26 @ 12:56 UTC
(37 minutes ago)
VFR
Clouds
  • Clear skies
Temperature Dewpoint
29°C / 84°F 15°C / 59°F
Humidity Altimeter Pressure
43% 29.83" Hg 1010 hPa